Time;durP1;ratioP1;P1;durP2;ratioP2;P2;SDS_P1;SDS_P2;PMS_P1;PMS_P2;Temp;Humidity;BMP_temperature;BMP_pressure;BME280_temperature;BME280_humidity;BME280_pressure;Samples;Min_cycle;Max_cycle;Signal;HPM_P1;HPM_P2
2021/08/30 00:00:28;;;;;;;7.60;5.10;;;;;;;;;;5040001;28;20231;-80
2021/08/30 00:02:55;;;;;;;7.57;5.10;;;;;;;;;;5050647;28;20310;-80
2021/08/30 00:05:23;;;;;;;10.17;5.20;;;;;;;;;;5051805;28;20283;-80
2021/08/30 00:07:51;;;;;;;10.60;5.17;;;;;;;;;;5052985;28;20282;-80
2021/08/30 00:10:18;;;;;;;9.10;4.90;;;;;;;;;;5051797;28;20632;-80
2021/08/30 00:12:46;;;;;;;9.57;4.77;;;;;;;;;;5049419;28;20203;-80
2021/08/30 00:15:15;;;;;;;8.07;4.57;;;;;;;;;;5048582;28;20215;-80
2021/08/30 00:17:42;;;;;;;11.37;5.17;;;;;;;;;;5051897;28;20663;-80
2021/08/30 00:20:11;;;;;;;11.17;5.10;;;;;;;;;;5032690;28;20251;-80
2021/08/30 00:22:40;;;;;;;9.87;4.90;;;;;;;;;;5045173;28;20223;-80
2021/08/30 00:25:07;;;;;;;9.17;4.53;;;;;;;;;;5051867;28;20650;-80
2021/08/30 00:27:35;;;;;;;9.33;4.70;;;;;;;;;;5051671;28;20253;-80
2021/08/30 00:30:02;;;;;;;7.67;4.87;;;;;;;;;;5052345;28;20346;-80
2021/08/30 00:32:29;;;;;;;9.50;4.57;;;;;;;;;;5034777;28;20236;-80
2021/08/30 00:34:56;;;;;;;7.83;4.60;;;;;;;;;;5050684;28;20251;-80
2021/08/30 00:37:23;;;;;;;7.67;4.17;;;;;;;;;;5051645;28;20286;-80
2021/08/30 00:39:52;;;;;;;10.40;4.53;;;;;;;;;;5050717;28;20202;-80
2021/08/30 00:42:20;;;;;;;9.23;4.40;;;;;;;;;;5040283;28;20743;-80
2021/08/30 00:44:47;;;;;;;7.37;4.40;;;;;;;;;;5035354;28;20203;-80
2021/08/30 00:47:14;;;;;;;8.50;4.07;;;;;;;;;;5052033;28;20311;-80
2021/08/30 00:49:42;;;;;;;9.80;4.37;;;;;;;;;;5037905;28;20234;-80
2021/08/30 00:52:09;;;;;;;10.10;4.50;;;;;;;;;;5037757;28;20687;-80
2021/08/30 00:54:36;;;;;;;7.93;4.53;;;;;;;;;;5051122;28;20219;-80
2021/08/30 00:57:06;;;;;;;8.10;3.93;;;;;;;;;;5050541;28;20294;-80
2021/08/30 00:59:38;;;;;;;6.77;4.13;;;;;;;;;;5041713;28;20192;-80
2021/08/30 01:02:06;;;;;;;6.50;4.13;;;;;;;;;;5041325;28;20247;-80
2021/08/30 01:04:33;;;;;;;9.03;4.10;;;;;;;;;;5038537;28;20214;-80
2021/08/30 01:07:03;;;;;;;7.23;4.23;;;;;;;;;;5051646;28;20278;-79
2021/08/30 01:09:34;;;;;;;8.57;4.00;;;;;;;;;;5045251;28;20290;-79
2021/08/30 01:12:06;;;;;;;7.17;3.90;;;;;;;;;;5044423;28;20237;-79
2021/08/30 01:14:38;;;;;;;7.33;4.33;;;;;;;;;;5039217;28;20303;-80
2021/08/30 01:17:06;;;;;;;7.20;4.13;;;;;;;;;;5038590;28;20278;-80
2021/08/30 01:19:35;;;;;;;7.20;4.00;;;;;;;;;;5051280;28;20366;-80
2021/08/30 01:22:04;;;;;;;8.87;3.97;;;;;;;;;;5051183;28;20216;-80
2021/08/30 01:24:31;;;;;;;9.00;4.20;;;;;;;;;;5051743;28;20283;-80
2021/08/30 01:26:59;;;;;;;7.83;4.07;;;;;;;;;;5048505;28;20750;-80
2021/08/30 01:29:29;;;;;;;6.80;4.00;;;;;;;;;;5046795;28;20291;-80
2021/08/30 01:31:59;;;;;;;10.07;3.87;;;;;;;;;;5050230;28;20286;-80
2021/08/30 01:34:29;;;;;;;7.03;4.17;;;;;;;;;;5050687;28;20230;-80
2021/08/30 01:36:56;;;;;;;8.10;4.40;;;;;;;;;;5045148;28;20737;-80
2021/08/30 01:39:29;;;;;;;8.37;3.80;;;;;;;;;;5044796;28;20291;-80
2021/08/30 01:41:57;;;;;;;7.17;3.60;;;;;;;;;;5031008;28;20200;-80
2021/08/30 01:44:24;;;;;;;8.13;3.77;;;;;;;;;;5037982;28;20683;-80
2021/08/30 01:46:52;;;;;;;7.23;4.17;;;;;;;;;;5051295;28;20207;-80
2021/08/30 01:49:20;;;;;;;8.30;4.33;;;;;;;;;;5049957;28;20294;-80
2021/08/30 01:51:49;;;;;;;9.23;4.30;;;;;;;;;;5036980;28;20207;-80
2021/08/30 01:54:17;;;;;;;9.93;4.37;;;;;;;;;;5049896;28;20218;-80
2021/08/30 01:56:48;;;;;;;7.20;4.40;;;;;;;;;;5050857;28;20809;-80
2021/08/30 02:02:10;;;;;;;8.57;4.40;;;;;;;;;;5010197;28;20710;-80
2021/08/30 02:04:37;;;;;;;9.23;4.83;;;;;;;;;;5051013;28;20224;-80
2021/08/30 02:07:06;;;;;;;10.40;4.50;;;;;;;;;;5050804;28;20294;-80
2021/08/30 02:09:33;;;;;;;9.80;4.57;;;;;;;;;;5050616;28;20210;-80
2021/08/30 02:12:01;;;;;;;10.57;4.50;;;;;;;;;;5034167;28;20236;-80
2021/08/30 02:14:28;;;;;;;9.13;4.53;;;;;;;;;;5038089;28;20229;-80
2021/08/30 02:16:57;;;;;;;8.73;4.50;;;;;;;;;;5044151;28;20287;-81
2021/08/30 02:19:28;;;;;;;9.87;4.50;;;;;;;;;;5052610;28;20287;-78
2021/08/30 02:21:57;;;;;;;7.60;4.50;;;;;;;;;;5041965;28;20271;-78
2021/08/30 02:24:31;;;;;;;10.80;4.57;;;;;;;;;;5053749;28;20282;-80
2021/08/30 02:27:01;;;;;;;7.90;4.30;;;;;;;;;;5049551;28;20195;-80
2021/08/30 02:29:31;;;;;;;8.47;4.80;;;;;;;;;;5054655;28;20292;-80
2021/08/30 02:32:00;;;;;;;8.07;4.53;;;;;;;;;;5054154;28;20249;-81
2021/08/30 02:34:29;;;;;;;8.87;4.47;;;;;;;;;;5052096;28;20314;-81
2021/08/30 02:36:57;;;;;;;8.37;4.30;;;;;;;;;;5037393;28;20279;-80
2021/08/30 02:39:25;;;;;;;10.43;4.50;;;;;;;;;;5055020;28;20227;-80
2021/08/30 02:41:53;;;;;;;7.43;4.50;;;;;;;;;;5051645;28;20234;-78
2021/08/30 02:44:21;;;;;;;5.97;4.17;;;;;;;;;;5052272;28;20223;-80
2021/08/30 02:46:48;;;;;;;7.60;4.23;;;;;;;;;;5054363;28;20286;-80
2021/08/30 02:49:15;;;;;;;13.67;5.17;;;;;;;;;;5051155;28;20199;-78
2021/08/30 02:51:43;;;;;;;9.10;5.00;;;;;;;;;;5049532;28;20543;-80
2021/08/30 02:54:11;;;;;;;7.60;4.53;;;;;;;;;;5043298;28;20243;-80
2021/08/30 02:56:40;;;;;;;7.00;4.33;;;;;;;;;;5053393;28;20278;-80
2021/08/30 02:59:09;;;;;;;8.40;4.50;;;;;;;;;;5052836;28;20238;-80
2021/08/30 03:01:37;;;;;;;8.93;4.33;;;;;;;;;;5053874;28;20298;-79
2021/08/30 03:04:04;;;;;;;8.43;4.40;;;;;;;;;;5053802;28;20624;-80
2021/08/30 03:06:32;;;;;;;8.00;4.00;;;;;;;;;;5053966;28;20722;-79
2021/08/30 03:08:59;;;;;;;10.47;4.37;;;;;;;;;;5051799;28;20282;-80
2021/08/30 03:11:28;;;;;;;8.43;4.10;;;;;;;;;;5053942;28;20199;-79
2021/08/30 03:13:57;;;;;;;7.47;3.90;;;;;;;;;;5053017;28;20274;-80
2021/08/30 03:16:26;;;;;;;7.40;4.20;;;;;;;;;;5053965;28;20246;-80
2021/08/30 03:18:54;;;;;;;10.80;4.10;;;;;;;;;;5053298;28;20231;-79
2021/08/30 03:21:23;;;;;;;9.47;4.37;;;;;;;;;;5037384;28;20287;-80
2021/08/30 03:23:51;;;;;;;6.47;3.97;;;;;;;;;;5035799;28;20224;-80
2021/08/30 03:26:18;;;;;;;6.40;3.67;;;;;;;;;;5037460;28;20279;-80
2021/08/30 03:28:45;;;;;;;5.87;4.03;;;;;;;;;;5052703;28;20295;-80
2021/08/30 03:31:13;;;;;;;8.30;3.87;;;;;;;;;;5047833;28;20227;-78
2021/08/30 03:33:42;;;;;;;7.03;3.83;;;;;;;;;;5042395;28;20287;-78
2021/08/30 03:36:10;;;;;;;9.13;3.83;;;;;;;;;;5053594;28;20234;-80
2021/08/30 03:38:38;;;;;;;9.73;3.90;;;;;;;;;;5053551;28;20278;-80
2021/08/30 03:41:06;;;;;;;6.53;4.07;;;;;;;;;;5045775;28;20295;-80
2021/08/30 03:43:33;;;;;;;7.90;3.47;;;;;;;;;;5040263;28;20191;-80
2021/08/30 03:46:01;;;;;;;8.83;4.20;;;;;;;;;;5053136;28;20284;-78
2021/08/30 03:48:29;;;;;;;7.80;3.57;;;;;;;;;;5052864;28;20291;-80
2021/08/30 03:50:59;;;;;;;8.13;4.03;;;;;;;;;;5053190;28;20314;-80
2021/08/30 03:53:27;;;;;;;9.33;3.77;;;;;;;;;;5041826;28;20295;-80
2021/08/30 03:55:55;;;;;;;8.77;4.00;;;;;;;;;;5034228;28;20311;-80
2021/08/30 03:58:23;;;;;;;8.23;4.00;;;;;;;;;;5033116;28;20339;-78
2021/08/30 04:00:50;;;;;;;6.33;3.50;;;;;;;;;;5042258;28;20211;-80
2021/08/30 04:03:19;;;;;;;7.73;3.87;;;;;;;;;;5044565;28;20236;-81
2021/08/30 04:05:47;;;;;;;9.17;4.00;;;;;;;;;;5049481;28;20200;-78
2021/08/30 04:08:16;;;;;;;8.13;4.30;;;;;;;;;;5053028;28;20215;-80
2021/08/30 04:10:43;;;;;;;7.77;3.47;;;;;;;;;;5053266;28;20227;-79
2021/08/30 04:13:10;;;;;;;9.53;4.30;;;;;;;;;;5044318;28;20287;-80
2021/08/30 04:15:37;;;;;;;6.57;4.00;;;;;;;;;;5049546;28;20314;-80
2021/08/30 04:18:04;;;;;;;7.40;4.20;;;;;;;;;;5053260;28;20196;-79
2021/08/30 04:20:32;;;;;;;8.03;4.23;;;;;;;;;;5052059;28;20314;-80
2021/08/30 04:22:59;;;;;;;7.70;4.30;;;;;;;;;;5049523;28;20214;-80
2021/08/30 04:25:27;;;;;;;9.57;4.10;;;;;;;;;;5052534;28;20291;-80
2021/08/30 04:27:55;;;;;;;9.07;4.37;;;;;;;;;;5052058;28;20250;-80
2021/08/30 04:30:22;;;;;;;8.03;4.40;;;;;;;;;;5050639;28;20283;-80
2021/08/30 04:32:53;;;;;;;8.17;4.30;;;;;;;;;;5033088;28;20196;-80
2021/08/30 04:35:20;;;;;;;8.10;4.80;;;;;;;;;;5032324;28;20228;-79
2021/08/30 04:37:47;;;;;;;9.17;4.37;;;;;;;;;;5032468;28;20207;-80
2021/08/30 04:40:15;;;;;;;8.40;4.37;;;;;;;;;;5039720;28;20308;-80
2021/08/30 04:42:43;;;;;;;12.23;4.53;;;;;;;;;;5051629;28;20223;-80
2021/08/30 04:45:11;;;;;;;9.67;4.80;;;;;;;;;;5052305;28;20286;-80
2021/08/30 04:47:38;;;;;;;8.50;4.33;;;;;;;;;;5051657;28;20287;-80
2021/08/30 04:50:06;;;;;;;6.53;3.80;;;;;;;;;;5051451;28;20287;-80
2021/08/30 04:52:33;;;;;;;8.97;4.53;;;;;;;;;;5052016;28;20287;-80
2021/08/30 04:55:00;;;;;;;10.67;4.17;;;;;;;;;;5049970;28;20230;-80
2021/08/30 04:57:28;;;;;;;10.30;4.47;;;;;;;;;;5038709;28;20282;-79
2021/08/30 04:59:56;;;;;;;7.70;4.67;;;;;;;;;;5050902;28;20223;-80
2021/08/30 05:02:23;;;;;;;9.03;5.00;;;;;;;;;;5050256;28;20623;-80
2021/08/30 05:04:50;;;;;;;9.03;4.50;;;;;;;;;;5031492;28;20690;-80
2021/08/30 05:07:18;;;;;;;10.27;4.80;;;;;;;;;;5045417;28;20200;-80
2021/08/30 05:09:45;;;;;;;10.10;4.87;;;;;;;;;;5036237;28;20232;-80
2021/08/30 05:12:12;;;;;;;10.10;4.33;;;;;;;;;;5039759;28;20210;-80
2021/08/30 05:14:39;;;;;;;7.80;4.80;;;;;;;;;;5051308;28;20306;-80
2021/08/30 05:17:08;;;;;;;8.87;5.20;;;;;;;;;;5039115;28;20287;-80
2021/08/30 05:19:35;;;;;;;9.97;4.87;;;;;;;;;;5039529;28;20287;-80
2021/08/30 05:22:02;;;;;;;9.13;5.10;;;;;;;;;;5051639;28;20311;-80
2021/08/30 05:24:29;;;;;;;10.93;4.70;;;;;;;;;;5035045;28;20283;-80
2021/08/30 05:26:56;;;;;;;11.77;5.23;;;;;;;;;;5040432;28;20290;-80
2021/08/30 05:29:23;;;;;;;8.97;5.10;;;;;;;;;;5049251;28;20231;-80
2021/08/30 05:31:51;;;;;;;7.63;5.17;;;;;;;;;;5045567;28;20278;-79
2021/08/30 05:34:19;;;;;;;14.00;5.73;;;;;;;;;;5039021;28;20291;-80
2021/08/30 05:36:46;;;;;;;9.30;5.03;;;;;;;;;;5051336;28;20290;-80
2021/08/30 05:39:13;;;;;;;9.70;5.17;;;;;;;;;;5040079;28;20291;-80
2021/08/30 05:41:41;;;;;;;8.73;5.33;;;;;;;;;;5045212;28;20283;-80
2021/08/30 05:44:08;;;;;;;12.07;5.73;;;;;;;;;;5051666;28;20203;-80
2021/08/30 05:46:35;;;;;;;10.43;5.73;;;;;;;;;;5043573;28;20287;-79
2021/08/30 05:49:03;;;;;;;9.23;5.60;;;;;;;;;;5050856;28;20231;-80
2021/08/30 05:51:31;;;;;;;7.83;5.27;;;;;;;;;;5053772;28;20290;-80
2021/08/30 05:53:58;;;;;;;12.13;5.67;;;;;;;;;;5054580;28;20279;-80
2021/08/30 05:56:27;;;;;;;11.17;5.50;;;;;;;;;;5054917;28;20298;-80
2021/08/30 05:58:54;;;;;;;10.37;5.73;;;;;;;;;;5054859;28;20207;-80
2021/08/30 06:01:21;;;;;;;10.97;6.53;;;;;;;;;;5050644;28;20238;-80
2021/08/30 06:03:48;;;;;;;12.00;6.07;;;;;;;;;;5050100;28;20258;-81
2021/08/30 06:06:15;;;;;;;9.73;6.10;;;;;;;;;;5052044;28;20811;-81
2021/08/30 06:08:44;;;;;;;10.90;6.00;;;;;;;;;;5054458;28;20246;-81
2021/08/30 06:11:11;;;;;;;8.43;6.40;;;;;;;;;;5054346;28;20286;-82
2021/08/30 06:13:38;;;;;;;12.63;6.80;;;;;;;;;;5043475;28;20279;-81
2021/08/30 06:16:06;;;;;;;13.67;7.20;;;;;;;;;;5053591;28;20630;-80
2021/08/30 06:18:33;;;;;;;10.60;6.57;;;;;;;;;;5055058;28;20272;-81
2021/08/30 06:21:00;;;;;;;12.90;6.37;;;;;;;;;;5039593;28;20282;-79
2021/08/30 06:23:29;;;;;;;11.33;7.30;;;;;;;;;;5052611;28;20242;-79
2021/08/30 06:25:59;;;;;;;11.30;6.23;;;;;;;;;;5049113;28;20203;-79
2021/08/30 06:28:28;;;;;;;12.47;6.47;;;;;;;;;;5034757;28;20651;-80
2021/08/30 06:30:55;;;;;;;10.53;6.10;;;;;;;;;;5043562;28;20279;-78
2021/08/30 06:33:22;;;;;;;12.13;6.30;;;;;;;;;;5039427;28;20214;-78
2021/08/30 06:35:50;;;;;;;11.00;6.17;;;;;;;;;;5045910;28;20314;-80
2021/08/30 06:38:29;;;;;;;12.40;6.13;;;;;;;;;;5045003;28;20243;-80
2021/08/30 06:41:25;;;;;;;12.83;5.97;;;;;;;;;;5037051;28;20206;-80
2021/08/30 06:44:08;;;;;;;11.70;6.60;;;;;;;;;;5048646;28;20202;-80
2021/08/30 06:46:44;;;;;;;9.17;5.77;;;;;;;;;;5046360;28;20224;-82
2021/08/30 06:49:11;;;;;;;10.20;5.70;;;;;;;;;;5028487;28;20580;-82
2021/08/30 06:51:38;;;;;;;9.77;5.67;;;;;;;;;;5034306;28;20240;-82
2021/08/30 06:54:05;;;;;;;11.10;6.30;;;;;;;;;;5049148;28;20646;-81
2021/08/30 06:56:34;;;;;;;12.57;6.13;;;;;;;;;;5046838;28;20646;-81
2021/08/30 06:59:01;;;;;;;12.30;6.20;;;;;;;;;;5050672;28;20243;-81
2021/08/30 07:01:28;;;;;;;10.60;5.90;;;;;;;;;;5048310;28;20219;-81
2021/08/30 07:03:55;;;;;;;12.63;5.80;;;;;;;;;;5040087;28;20317;-82
2021/08/30 07:06:23;;;;;;;9.20;5.67;;;;;;;;;;5050324;28;20223;-81
2021/08/30 07:08:50;;;;;;;8.03;5.60;;;;;;;;;;5050215;28;20629;-82
2021/08/30 07:11:17;;;;;;;9.27;5.63;;;;;;;;;;5050935;28;20208;-81
2021/08/30 07:13:47;;;;;;;10.03;5.70;;;;;;;;;;5047993;28;20200;-82
2021/08/30 07:16:14;;;;;;;9.83;5.97;;;;;;;;;;5042575;28;20789;-82
2021/08/30 07:18:41;;;;;;;9.63;6.03;;;;;;;;;;5045363;28;20231;-82
2021/08/30 07:21:09;;;;;;;8.57;5.43;;;;;;;;;;5041267;28;20280;-82
2021/08/30 07:23:37;;;;;;;9.03;5.13;;;;;;;;;;5049867;28;20204;-82
2021/08/30 07:26:04;;;;;;;6.63;4.80;;;;;;;;;;5034463;28;20198;-83
2021/08/30 07:28:31;;;;;;;9.33;5.53;;;;;;;;;;5050694;28;20318;-82
2021/08/30 07:31:00;;;;;;;9.87;5.47;;;;;;;;;;5052539;28;20269;-81
2021/08/30 07:33:27;;;;;;;7.53;5.13;;;;;;;;;;5052172;28;20295;-81
2021/08/30 07:35:55;;;;;;;9.60;5.10;;;;;;;;;;5053164;28;20230;-82
2021/08/30 07:38:22;;;;;;;8.50;5.37;;;;;;;;;;5035844;28;20247;-81
2021/08/30 07:40:49;;;;;;;8.67;4.73;;;;;;;;;;5042448;28;20211;-82
2021/08/30 07:43:16;;;;;;;8.47;4.70;;;;;;;;;;5051181;28;20208;-82
2021/08/30 07:45:44;;;;;;;4.77;3.57;;;;;;;;;;5052175;28;20202;-82
2021/08/30 07:48:12;;;;;;;5.17;3.57;;;;;;;;;;5032660;28;20247;-81
2021/08/30 07:50:39;;;;;;;5.20;3.50;;;;;;;;;;5042033;28;20202;-82
2021/08/30 07:53:07;;;;;;;7.23;3.60;;;;;;;;;;5042317;28;20258;-81
2021/08/30 07:55:35;;;;;;;8.40;3.00;;;;;;;;;;5047384;28;20282;-82
2021/08/30 07:58:03;;;;;;;3.53;2.70;;;;;;;;;;5035803;28;20215;-82
2021/08/30 08:00:30;;;;;;;3.83;2.72;;;;;;;;;;5045614;28;20209;-81
2021/08/30 08:02:57;;;;;;;5.05;2.95;;;;;;;;;;5046350;28;20701;-82
2021/08/30 08:05:26;;;;;;;4.13;3.00;;;;;;;;;;5042838;28;20231;-82
2021/08/30 08:07:53;;;;;;;3.70;2.70;;;;;;;;;;5040730;28;20228;-81
2021/08/30 08:10:20;;;;;;;6.07;2.90;;;;;;;;;;5043928;28;20288;-81
2021/08/30 08:12:47;;;;;;;4.38;2.97;;;;;;;;;;5050343;28;20725;-82
2021/08/30 08:15:15;;;;;;;3.63;3.00;;;;;;;;;;5037525;28;20261;-84
2021/08/30 08:17:42;;;;;;;4.77;3.63;;;;;;;;;;5043394;28;20258;-83
2021/08/30 08:20:09;;;;;;;5.05;3.05;;;;;;;;;;5042911;28;20287;-82
2021/08/30 08:22:38;;;;;;;4.43;3.15;;;;;;;;;;5038854;28;20209;-82
2021/08/30 08:25:06;;;;;;;4.32;3.30;;;;;;;;;;5044000;28;20235;-82
2021/08/30 08:27:36;;;;;;;5.45;3.40;;;;;;;;;;5051684;28;20199;-82
2021/08/30 08:30:04;;;;;;;4.20;3.22;;;;;;;;;;5051646;28;20626;-82
2021/08/30 08:32:31;;;;;;;4.85;3.00;;;;;;;;;;5036354;28;20602;-81
2021/08/30 08:35:03;;;;;;;6.13;4.00;;;;;;;;;;5037196;28;20231;-80
2021/08/30 08:37:30;;;;;;;6.07;3.03;;;;;;;;;;5052332;28;21041;-80
2021/08/30 08:39:59;;;;;;;5.90;2.90;;;;;;;;;;5052472;28;20208;-80
2021/08/30 08:42:26;;;;;;;5.28;3.50;;;;;;;;;;5042281;28;20235;-80
2021/08/30 08:44:53;;;;;;;4.78;2.72;;;;;;;;;;5047300;28;20241;-80
2021/08/30 08:47:21;;;;;;;3.53;2.67;;;;;;;;;;5037079;28;20192;-80
2021/08/30 08:49:51;;;;;;;4.80;2.85;;;;;;;;;;5045717;28;20204;-80
2021/08/30 08:52:20;;;;;;;4.65;3.00;;;;;;;;;;5039250;28;20203;-81
2021/08/30 08:54:47;;;;;;;3.90;2.88;;;;;;;;;;5040687;28;20205;-81
2021/08/30 08:57:15;;;;;;;4.55;2.95;;;;;;;;;;5044827;28;20235;-81
2021/08/30 08:59:55;;;;;;;3.60;2.72;;;;;;;;;;5039452;28;20220;-80
2021/08/30 09:02:26;;;;;;;3.63;2.60;;;;;;;;;;5044306;28;20286;-81
2021/08/30 09:04:54;;;;;;;5.07;2.90;;;;;;;;;;5039597;28;20224;-81
2021/08/30 09:07:29;;;;;;;3.58;2.65;;;;;;;;;;5042399;28;20204;-79
2021/08/30 09:09:57;;;;;;;3.95;2.80;;;;;;;;;;5041009;28;20211;-80
2021/08/30 09:12:26;;;;;;;3.40;2.63;;;;;;;;;;5041298;28;20552;-80
2021/08/30 09:14:53;;;;;;;4.07;2.83;;;;;;;;;;5041052;28;20682;-80
2021/08/30 09:17:21;;;;;;;4.68;2.63;;;;;;;;;;5044156;28;20253;-80
2021/08/30 09:19:48;;;;;;;2.60;2.40;;;;;;;;;;5040642;28;20303;-81
2021/08/30 09:22:16;;;;;;;3.45;2.42;;;;;;;;;;5039712;28;20204;-82
2021/08/30 09:24:43;;;;;;;3.25;2.70;;;;;;;;;;5038721;28;20727;-81
2021/08/30 09:27:12;;;;;;;3.53;2.85;;;;;;;;;;5039895;28;20232;-81
2021/08/30 09:29:44;;;;;;;5.05;3.08;;;;;;;;;;5043839;28;20204;-81
2021/08/30 09:32:13;;;;;;;3.53;2.70;;;;;;;;;;5038828;28;20204;-81
2021/08/30 09:34:41;;;;;;;3.85;2.80;;;;;;;;;;5039229;28;20200;-81
2021/08/30 09:37:15;;;;;;;4.07;2.55;;;;;;;;;;5039894;28;20314;-81
2021/08/30 09:39:45;;;;;;;3.92;2.60;;;;;;;;;;5042023;28;20703;-81
2021/08/30 09:42:13;;;;;;;3.05;2.33;;;;;;;;;;5041778;28;20227;-82
2021/08/30 09:44:41;;;;;;;2.75;2.08;;;;;;;;;;5043401;28;20223;-83
2021/08/30 09:47:09;;;;;;;3.20;1.80;;;;;;;;;;5037571;28;20270;-79
2021/08/30 09:49:37;;;;;;;2.97;1.90;;;;;;;;;;5048277;28;20191;-82
2021/08/30 09:52:04;;;;;;;2.65;1.90;;;;;;;;;;5045007;28;20226;-83
2021/08/30 09:54:31;;;;;;;3.47;1.90;;;;;;;;;;5047555;28;20227;-81
2021/08/30 09:56:59;;;;;;;2.83;1.90;;;;;;;;;;5048073;28;20259;-82
2021/08/30 09:59:27;;;;;;;2.97;1.90;;;;;;;;;;5039349;28;20847;-82
2021/08/30 10:02:01;;;;;;;2.75;2.08;;;;;;;;;;5044600;28;20734;-86
2021/08/30 10:04:29;;;;;;;2.75;1.90;;;;;;;;;;5044549;28;20259;-81
2021/08/30 10:06:57;;;;;;;3.42;2.08;;;;;;;;;;5049720;28;20296;-79
2021/08/30 10:09:24;;;;;;;2.30;2.08;;;;;;;;;;5046322;28;20286;-81
2021/08/30 10:11:52;;;;;;;2.92;2.30;;;;;;;;;;5047374;28;20287;-82
2021/08/30 10:14:20;;;;;;;3.92;2.50;;;;;;;;;;5038799;28;20247;-83
2021/08/30 10:16:48;;;;;;;3.30;2.25;;;;;;;;;;5045687;28;20307;-83
2021/08/30 10:19:27;;;;;;;3.83;2.17;;;;;;;;;;5048337;28;20200;-83
2021/08/30 10:21:54;;;;;;;3.13;2.40;;;;;;;;;;5046288;28;20203;-83
2021/08/30 10:24:21;;;;;;;2.95;2.15;;;;;;;;;;5040828;28;20555;-82
2021/08/30 10:26:49;;;;;;;3.55;2.10;;;;;;;;;;5039875;28;20246;-83
2021/08/30 10:29:18;;;;;;;2.72;2.05;;;;;;;;;;5045194;28;20234;-82
2021/08/30 10:31:49;;;;;;;2.30;2.10;;;;;;;;;;5041052;28;20251;-83
2021/08/30 10:34:28;;;;;;;2.85;1.95;;;;;;;;;;5045798;28;20235;-83
2021/08/30 10:36:55;;;;;;;2.55;1.98;;;;;;;;;;5044276;28;20608;-82
2021/08/30 10:39:23;;;;;;;3.15;2.38;;;;;;;;;;5043158;28;20671;-82
2021/08/30 10:41:50;;;;;;;3.40;2.00;;;;;;;;;;5052136;28;20299;-81
2021/08/30 10:44:19;;;;;;;3.65;2.00;;;;;;;;;;5048960;28;20201;-81
2021/08/30 10:46:49;;;;;;;2.55;1.90;;;;;;;;;;5050668;28;20192;-82
2021/08/30 10:49:18;;;;;;;3.17;1.80;;;;;;;;;;5053925;28;20301;-82
2021/08/30 10:51:47;;;;;;;5.13;2.05;;;;;;;;;;5051024;28;20283;-82
2021/08/30 10:54:15;;;;;;;3.25;2.00;;;;;;;;;;5042890;28;20287;-82
2021/08/30 10:56:55;;;;;;;2.95;2.10;;;;;;;;;;5046357;28;20299;-82
2021/08/30 10:59:23;;;;;;;3.63;2.20;;;;;;;;;;5037160;28;20286;-81
2021/08/30 11:01:52;;;;;;;5.75;2.10;;;;;;;;;;5042873;28;20331;-81
2021/08/30 11:04:29;;;;;;;2.67;1.80;;;;;;;;;;5049951;28;20239;-82
2021/08/30 11:06:57;;;;;;;3.97;2.28;;;;;;;;;;5050552;28;20283;-82
2021/08/30 11:09:24;;;;;;;3.85;2.00;;;;;;;;;;5043657;28;20738;-82
2021/08/30 11:11:52;;;;;;;2.63;1.92;;;;;;;;;;5038566;28;20325;-82
2021/08/30 11:14:20;;;;;;;2.45;1.65;;;;;;;;;;5048950;28;20239;-82
2021/08/30 11:16:54;;;;;;;3.42;2.08;;;;;;;;;;5053708;28;20274;-81
2021/08/30 11:19:21;;;;;;;4.25;2.15;;;;;;;;;;5046096;28;20199;-81
2021/08/30 11:21:51;;;;;;;3.35;1.85;;;;;;;;;;5046525;28;20222;-82
2021/08/30 11:24:27;;;;;;;2.38;1.90;;;;;;;;;;5045946;28;20203;-82
2021/08/30 11:26:55;;;;;;;2.35;1.90;;;;;;;;;;5042832;28;20192;-82
2021/08/30 11:29:22;;;;;;;2.28;1.90;;;;;;;;;;5042333;28;20286;-80
2021/08/30 11:31:49;;;;;;;2.45;1.90;;;;;;;;;;5050003;28;20279;-83
2021/08/30 11:34:24;;;;;;;3.53;1.88;;;;;;;;;;5049489;28;20207;-81
2021/08/30 11:36:52;;;;;;;2.45;1.90;;;;;;;;;;5040253;28;20302;-81
2021/08/30 11:39:19;;;;;;;2.30;1.77;;;;;;;;;;5052106;28;20452;-83
2021/08/30 11:41:51;;;;;;;3.17;2.00;;;;;;;;;;5033695;28;20686;-84
2021/08/30 11:44:18;;;;;;;3.22;1.90;;;;;;;;;;5033567;28;20232;-83
2021/08/30 11:46:46;;;;;;;2.05;1.85;;;;;;;;;;5048737;28;20215;-83
2021/08/30 11:49:14;;;;;;;2.15;1.88;;;;;;;;;;5043826;28;20652;-82
2021/08/30 11:51:42;;;;;;;2.40;1.85;;;;;;;;;;5046991;28;20207;-83
2021/08/30 11:54:14;;;;;;;2.30;1.80;;;;;;;;;;5039393;28;20745;-84
2021/08/30 11:56:41;;;;;;;3.45;1.85;;;;;;;;;;5047893;28;20219;-84
2021/08/30 11:59:10;;;;;;;2.97;2.10;;;;;;;;;;5043228;28;20971;-83
2021/08/30 12:01:38;;;;;;;2.92;2.20;;;;;;;;;;5049489;28;20650;-83
2021/08/30 12:04:15;;;;;;;2.70;2.05;;;;;;;;;;5045544;28;20271;-81
2021/08/30 12:06:47;;;;;;;4.65;2.15;;;;;;;;;;5034685;28;20197;-82
2021/08/30 12:09:15;;;;;;;2.67;2.13;;;;;;;;;;5050639;28;20287;-81
2021/08/30 12:11:47;;;;;;;2.45;1.90;;;;;;;;;;5042739;28;20234;-81
2021/08/30 12:14:16;;;;;;;2.67;2.22;;;;;;;;;;5035345;28;20211;-81
2021/08/30 12:16:45;;;;;;;2.88;2.00;;;;;;;;;;5044564;28;20226;-81
2021/08/30 12:19:12;;;;;;;3.08;2.20;;;;;;;;;;5053969;28;20651;-81
2021/08/30 12:21:40;;;;;;;2.75;2.08;;;;;;;;;;5055160;28;20251;-82
2021/08/30 12:24:08;;;;;;;2.63;2.25;;;;;;;;;;5055197;28;20230;-81
2021/08/30 12:26:36;;;;;;;3.67;2.08;;;;;;;;;;5054165;28;20302;-82
2021/08/30 12:29:04;;;;;;;3.30;2.28;;;;;;;;;;5054843;28;20317;-82
2021/08/30 12:31:33;;;;;;;2.50;2.13;;;;;;;;;;5054264;28;20231;-82
2021/08/30 12:34:04;;;;;;;2.25;2.05;;;;;;;;;;5054632;28;20285;-82
2021/08/30 12:36:32;;;;;;;2.33;2.13;;;;;;;;;;5036320;28;20232;-82
2021/08/30 12:38:59;;;;;;;2.97;2.13;;;;;;;;;;5044642;28;20192;-82
2021/08/30 12:41:26;;;;;;;2.80;2.22;;;;;;;;;;5034848;28;20223;-82
2021/08/30 12:43:53;;;;;;;3.17;2.25;;;;;;;;;;5035281;28;20231;-82
2021/08/30 12:46:21;;;;;;;2.22;1.95;;;;;;;;;;5034885;28;20287;-82
2021/08/30 12:48:49;;;;;;;3.92;2.00;;;;;;;;;;5054161;28;20223;-82
2021/08/30 12:51:16;;;;;;;2.67;2.13;;;;;;;;;;5055053;28;20593;-82
2021/08/30 12:53:44;;;;;;;2.25;2.03;;;;;;;;;;5053619;28;20735;-82
2021/08/30 12:56:11;;;;;;;2.92;2.00;;;;;;;;;;5053362;28;20282;-83
2021/08/30 12:58:38;;;;;;;2.83;2.20;;;;;;;;;;5037643;28;20326;-82
2021/08/30 13:01:05;;;;;;;3.78;2.53;;;;;;;;;;5053392;28;20226;-82
2021/08/30 13:03:32;;;;;;;2.85;2.30;;;;;;;;;;5052143;28;20294;-82
2021/08/30 13:06:01;;;;;;;2.45;2.20;;;;;;;;;;5052484;28;20695;-81
2021/08/30 13:08:28;;;;;;;4.03;2.30;;;;;;;;;;5051890;28;20231;-82
2021/08/30 13:10:55;;;;;;;2.25;2.05;;;;;;;;;;5053353;28;20199;-82
2021/08/30 13:13:23;;;;;;;2.65;2.33;;;;;;;;;;5043096;28;20210;-82
2021/08/30 13:15:51;;;;;;;3.65;2.30;;;;;;;;;;5032468;28;20672;-82
2021/08/30 13:18:19;;;;;;;4.15;2.55;;;;;;;;;;5043536;28;20250;-82
2021/08/30 13:20:50;;;;;;;3.47;2.53;;;;;;;;;;5046636;28;20283;-82
2021/08/30 13:23:19;;;;;;;3.65;2.60;;;;;;;;;;5044881;28;20200;-82
2021/08/30 13:25:46;;;;;;;4.22;2.60;;;;;;;;;;5033922;28;20291;-82
2021/08/30 13:28:14;;;;;;;2.75;2.47;;;;;;;;;;5050123;28;20226;-83
2021/08/30 13:30:41;;;;;;;3.25;2.65;;;;;;;;;;5053599;28;20203;-82
2021/08/30 13:33:09;;;;;;;3.45;2.45;;;;;;;;;;5053006;28;20234;-82
2021/08/30 13:35:37;;;;;;;2.70;2.28;;;;;;;;;;5046541;28;20204;-82
2021/08/30 13:38:04;;;;;;;3.15;2.83;;;;;;;;;;5034281;28;20230;-84
2021/08/30 13:40:33;;;;;;;3.88;2.75;;;;;;;;;;5034132;28;20623;-83
2021/08/30 13:43:00;;;;;;;3.45;2.90;;;;;;;;;;5033812;28;20639;-82
2021/08/30 13:45:27;;;;;;;3.42;3.03;;;;;;;;;;5039277;28;20622;-83
2021/08/30 13:47:56;;;;;;;5.93;3.33;;;;;;;;;;5052251;28;20235;-83
2021/08/30 13:50:24;;;;;;;3.35;3.05;;;;;;;;;;5044962;28;20294;-83
2021/08/30 13:52:51;;;;;;;4.00;3.22;;;;;;;;;;5053001;28;20291;-83
2021/08/30 13:55:18;;;;;;;3.70;3.38;;;;;;;;;;5049653;28;20231;-83
2021/08/30 13:57:47;;;;;;;4.10;3.58;;;;;;;;;;5051512;28;20250;-83
2021/08/30 14:00:14;;;;;;;5.65;3.20;;;;;;;;;;5041161;28;20648;-82
2021/08/30 14:02:42;;;;;;;5.38;3.50;;;;;;;;;;5046756;28;20667;-83
2021/08/30 14:05:10;;;;;;;3.65;3.35;;;;;;;;;;5051077;28;20581;-83
2021/08/30 14:07:37;;;;;;;5.38;3.30;;;;;;;;;;5050289;28;20729;-83
2021/08/30 14:10:05;;;;;;;4.55;3.80;;;;;;;;;;5051219;28;20235;-82
2021/08/30 14:12:32;;;;;;;4.10;3.70;;;;;;;;;;5048948;28;20204;-82
2021/08/30 14:15:01;;;;;;;7.00;4.50;;;;;;;;;;5052531;28;20569;-84
2021/08/30 14:17:28;;;;;;;5.18;3.83;;;;;;;;;;5055218;28;20232;-82
2021/08/30 14:19:55;;;;;;;5.35;4.00;;;;;;;;;;5052750;28;20303;-79
2021/08/30 14:22:23;;;;;;;4.22;3.80;;;;;;;;;;5048632;28;20291;-81
2021/08/30 14:24:50;;;;;;;4.97;3.55;;;;;;;;;;5044965;28;20231;-82
2021/08/30 14:27:18;;;;;;;5.22;3.58;;;;;;;;;;5050917;28;20203;-81
2021/08/30 14:29:46;;;;;;;4.57;4.10;;;;;;;;;;5042568;28;20237;-81
2021/08/30 14:32:14;;;;;;;4.40;4.00;;;;;;;;;;5049853;28;20218;-81
2021/08/30 14:34:41;;;;;;;5.50;3.95;;;;;;;;;;5052855;28;20236;-81
2021/08/30 14:37:09;;;;;;;5.80;4.00;;;;;;;;;;5053168;28;20647;-81
2021/08/30 14:39:37;;;;;;;5.28;4.00;;;;;;;;;;5037642;28;20270;-82
2021/08/30 14:42:04;;;;;;;5.47;4.20;;;;;;;;;;5053477;28;20235;-82
2021/08/30 14:44:32;;;;;;;6.70;3.78;;;;;;;;;;5052967;28;20282;-83
2021/08/30 14:46:59;;;;;;;6.75;4.10;;;;;;;;;;5053649;28;20223;-83
2021/08/30 14:49:27;;;;;;;5.13;4.38;;;;;;;;;;5041657;28;20201;-82